If you wish to contribute or participate in the discussions about articles you are invited to join SKYbrary as a registered user

 Actions

Albert-Bray Airport

From SKYbrary Wiki

LFAQ
Airport
ICAO: LFAQ
Summary
Name Albert-Bray Airport
Region Europe
Territory France FR.gif
Location , Picardie
Serving Albert
Elevation 110.947 m <br />364 ft <br />364 ft110.947 m <br />
Type small airport
Coordinates 49° 58' 17.51" N, 2° 41' 51.58" E
Runways
Designator Length Width Surface ROPS
9/27 1170 m3,838.583 ft <br /> 25 m82.021 ft <br /> ASP /


METAR
Observation LFAQ 160530Z AUTO 02005KT 6000 NSC 05/05 Q1021 TEMPO 3000 BR
Station BRAY
Date/Time 16 October 2021 05:30:00
Wind direction 20°
Wind speed 05 kts
Lowest cloud amount nil significant cloud
Temperature 5°C
Dew point 5°C
Humidity 100%
QNH 1021 hPa
Weather condition n/a